createdAt,value
2023-03-28T00:00:44.531Z,56.11
2023-03-28T00:03:14.549Z,56.35
2023-03-28T00:05:42.775Z,56.33
2023-03-28T00:08:11.914Z,56.35
2023-03-28T00:10:42.396Z,56.28
2023-03-28T00:13:10.432Z,56.41
2023-03-28T00:15:40.110Z,56.62
2023-03-28T00:18:08.193Z,56.64
2023-03-28T00:20:40.293Z,56.53
2023-03-28T00:23:09.563Z,56.35
2023-03-28T00:25:40.222Z,56.13
2023-03-28T00:28:13.585Z,56.22
2023-03-28T00:30:43.993Z,56.51
2023-03-28T00:33:14.385Z,56.88
2023-03-28T00:35:43.377Z,56.86
2023-03-28T00:38:13.852Z,56.66
2023-03-28T00:40:41.959Z,56.82
2023-03-28T00:43:14.435Z,56.64
2023-03-28T00:45:43.001Z,56.83
2023-03-28T00:48:15.554Z,56.77
2023-03-28T00:50:48.744Z,56.75
2023-03-28T00:53:19.498Z,56.35
2023-03-28T00:55:51.797Z,56.08
2023-03-28T00:58:24.144Z,56.07
2023-03-28T01:00:52.046Z,56.19
2023-03-28T01:03:22.454Z,56.31
2023-03-28T01:05:52.140Z,55.79
2023-03-28T01:08:22.076Z,55.69
2023-03-28T01:10:50.750Z,55.97
2023-03-28T01:13:22.649Z,56.04
2023-03-28T01:15:51.319Z,56.59
2023-03-28T01:18:22.525Z,57.14
2023-03-28T01:21:15.376Z,57.67
2023-03-28T01:24:15.082Z,57.55
2023-03-28T01:26:50.467Z,57.06
2023-03-28T01:29:44.387Z,56.67
2023-03-28T01:32:51.506Z,56.83
2023-03-28T01:35:44.809Z,57.07
2023-03-28T01:38:21.676Z,57.42
2023-03-28T01:40:58.165Z,57.73
2023-03-28T01:43:33.891Z,57.67
2023-03-28T01:46:08.953Z,57.76
2023-03-28T01:48:44.889Z,57.99
2023-03-28T01:51:21.042Z,57.95
2023-03-28T01:53:58.485Z,58.19
2023-03-28T01:56:37.789Z,58.46
2023-03-28T01:59:13.995Z,58.05
2023-03-28T02:01:48.525Z,58.21
2023-03-28T02:04:21.357Z,58.02
2023-03-28T02:06:51.158Z,58.19
2023-03-28T02:09:24.916Z,58.04
2023-03-28T02:11:59.154Z,57.99
2023-03-28T02:14:31.278Z,58.41
2023-03-28T02:17:04.694Z,58.51
2023-03-28T02:19:37.766Z,58.39
2023-03-28T02:22:16.467Z,58.55
2023-03-28T02:24:50.403Z,58.36
2023-03-28T02:27:18.291Z,58.01
2023-03-28T02:29:46.007Z,58.06
2023-03-28T02:32:14.669Z,58.24
2023-03-28T02:34:42.913Z,58.47
2023-03-28T02:37:22.095Z,58.89
2023-03-28T02:40:03.723Z,58.97
2023-03-28T02:42:59.523Z,59.16
2023-03-28T02:45:52.401Z,59.50
2023-03-28T02:48:31.027Z,59.46
2023-03-28T02:51:10.740Z,59.36
2023-03-28T02:53:44.769Z,59.82
2023-03-28T02:56:19.405Z,59.92
2023-03-28T02:58:52.247Z,59.91
2023-03-28T03:01:21.101Z,60.19
2023-03-28T03:03:49.954Z,59.88
2023-03-28T03:06:17.988Z,59.66
2023-03-28T03:08:45.893Z,59.48
2023-03-28T03:11:15.468Z,59.38
2023-03-28T03:13:46.866Z,59.24
2023-03-28T03:16:14.819Z,58.90
2023-03-28T03:18:42.588Z,58.76
2023-03-28T03:21:10.364Z,58.99
2023-03-28T03:23:38.197Z,59.00
2023-03-28T03:26:06.271Z,59.21
2023-03-28T03:28:35.273Z,59.13
2023-03-28T03:31:03.201Z,59.11
2023-03-28T03:33:32.376Z,59.11
2023-03-28T03:36:01.005Z,58.92
2023-03-28T03:38:28.862Z,58.84
2023-03-28T03:40:56.482Z,59.15
2023-03-28T03:43:24.125Z,58.97
2023-03-28T03:45:53.122Z,59.19
2023-03-28T03:48:20.805Z,59.47
2023-03-28T03:50:53.016Z,59.61
2023-03-28T03:53:20.819Z,59.13
2023-03-28T03:55:49.602Z,59.54
2023-03-28T03:58:18.659Z,59.17
2023-03-28T04:00:48.994Z,59.30
2023-03-28T04:03:24.020Z,59.36
2023-03-28T04:05:54.969Z,59.52
2023-03-28T04:08:23.163Z,59.69
2023-03-28T04:10:50.880Z,59.29
2023-03-28T04:13:18.580Z,59.43
2023-03-28T04:15:47.733Z,59.56
2023-03-28T04:18:17.695Z,59.80
2023-03-28T04:20:53.908Z,60.04
2023-03-28T04:23:25.662Z,60.15
2023-03-28T04:25:55.536Z,59.84
2023-03-28T04:28:25.496Z,59.80
2023-03-28T04:30:58.157Z,59.67
2023-03-28T04:33:27.329Z,59.61
2023-03-28T04:36:00.681Z,59.71
2023-03-28T04:38:29.429Z,59.80
2023-03-28T04:40:58.715Z,59.83
2023-03-28T04:43:26.513Z,59.63
2023-03-28T04:45:54.876Z,60.01
2023-03-28T04:48:29.936Z,59.82
2023-03-28T04:50:58.904Z,59.74
2023-03-28T04:53:26.661Z,59.52
2023-03-28T04:55:54.428Z,59.57
2023-03-28T04:58:24.150Z,59.29
2023-03-28T05:00:52.283Z,59.45
2023-03-28T05:03:22.574Z,59.42
2023-03-28T05:05:52.396Z,59.58
2023-03-28T05:08:23.627Z,59.87
2023-03-28T05:10:51.988Z,59.87
2023-03-28T05:13:19.842Z,60.03
2023-03-28T05:15:48.611Z,59.74
2023-03-28T05:18:16.558Z,59.71
2023-03-28T05:20:44.427Z,59.47
2023-03-28T05:23:12.143Z,59.46
2023-03-28T05:25:41.351Z,59.45
2023-03-28T05:28:09.072Z,59.35
2023-03-28T05:30:36.965Z,59.52
2023-03-28T05:33:04.761Z,60.17
2023-03-28T05:35:37.337Z,60.30
2023-03-28T05:38:05.102Z,60.78
2023-03-28T05:40:33.255Z,60.67
2023-03-28T05:43:02.361Z,61.20
2023-03-28T05:45:30.058Z,61.05
2023-03-28T05:47:57.839Z,60.59
2023-03-28T05:50:26.378Z,60.67
2023-03-28T05:52:54.229Z,60.71
2023-03-28T05:55:21.875Z,60.09
2023-03-28T05:57:49.557Z,59.70
2023-03-28T06:00:20.201Z,59.52
2023-03-28T06:02:50.267Z,59.58
2023-03-28T06:05:18.916Z,59.95
2023-03-28T06:07:46.656Z,59.97
2023-03-28T06:10:15.703Z,60.02
2023-03-28T06:12:43.341Z,59.50
2023-03-28T06:15:12.562Z,59.90
2023-03-28T06:17:41.752Z,59.27
2023-03-28T06:20:10.764Z,59.17
2023-03-28T06:22:38.630Z,58.99
2023-03-28T06:25:07.373Z,59.41
2023-03-28T06:27:35.539Z,59.33
2023-03-28T06:30:04.557Z,59.21
2023-03-28T06:32:32.579Z,59.31
2023-03-28T06:35:01.655Z,59.31
2023-03-28T06:37:29.287Z,58.93
2023-03-28T06:39:57.460Z,58.66
2023-03-28T06:42:25.224Z,58.51
2023-03-28T06:44:52.929Z,58.56
2023-03-28T06:47:20.698Z,58.44
2023-03-28T06:49:48.317Z,58.23
2023-03-28T06:52:17.432Z,57.79
2023-03-28T06:54:47.906Z,58.90
2023-03-28T06:57:16.496Z,59.37
2023-03-28T06:59:44.384Z,58.82
2023-03-28T07:02:12.792Z,58.96
2023-03-28T07:04:40.733Z,58.87
2023-03-28T07:07:09.527Z,58.88
2023-03-28T07:09:38.713Z,58.76
2023-03-28T07:12:07.139Z,58.51
2023-03-28T07:14:34.884Z,57.99
2023-03-28T07:17:02.731Z,57.99
2023-03-28T07:19:54.036Z,58.74
2023-03-28T07:22:21.645Z,58.84
2023-03-28T07:24:50.664Z,58.79
2023-03-28T07:27:18.362Z,58.40
2023-03-28T07:29:46.611Z,58.38
2023-03-28T07:32:14.362Z,58.04
2023-03-28T07:34:42.104Z,57.94
2023-03-28T07:37:10.816Z,57.67
2023-03-28T07:39:39.918Z,56.98
2023-03-28T07:42:11.427Z,56.79
2023-03-28T07:44:41.030Z,56.48
2023-03-28T07:47:10.532Z,56.00
2023-03-28T07:49:39.576Z,55.70
2023-03-28T07:52:07.383Z,55.60
2023-03-28T07:54:35.051Z,55.64
2023-03-28T07:57:03.104Z,55.20
2023-03-28T07:59:32.229Z,55.23
2023-03-28T08:01:59.909Z,54.10
2023-03-28T08:04:27.756Z,54.00
2023-03-28T08:06:56.136Z,52.74
2023-03-28T08:09:23.820Z,51.91
2023-03-28T08:11:51.581Z,50.76
2023-03-28T08:14:19.783Z,50.21
2023-03-28T08:16:48.920Z,50.11
2023-03-28T08:19:16.746Z,49.94
2023-03-28T08:21:44.635Z,50.51
2023-03-28T08:24:19.523Z,49.79
2023-03-28T08:26:53.615Z,49.19
2023-03-28T08:29:21.620Z,47.83
2023-03-28T08:31:50.741Z,47.30
2023-03-28T08:34:18.532Z,46.47
2023-03-28T08:36:47.040Z,45.92
2023-03-28T08:39:14.680Z,44.67
2023-03-28T08:41:58.373Z,41.66
2023-03-28T08:44:41.606Z,38.32
2023-03-28T08:47:15.624Z,33.99
2023-03-28T08:49:47.137Z,30.39
2023-03-28T08:52:17.010Z,28.71
2023-03-28T08:54:48.755Z,26.47
2023-03-28T08:57:20.991Z,24.07
2023-03-28T08:59:56.583Z,21.81
2023-03-28T09:02:29.681Z,20.40
2023-03-28T09:05:11.967Z,18.87
2023-03-28T09:07:55.644Z,18.24
2023-03-28T09:10:29.875Z,19.23
2023-03-28T09:13:07.315Z,18.17
2023-03-28T09:15:47.401Z,16.86
2023-03-28T09:18:37.272Z,16.00
2023-03-28T09:21:14.333Z,15.88
2023-03-28T09:23:55.152Z,15.07
2023-03-28T09:26:26.176Z,15.33
2023-03-28T09:29:00.609Z,15.25
2023-03-28T09:31:33.583Z,14.73
2023-03-28T09:34:04.260Z,15.02
2023-03-28T09:36:45.344Z,15.50
2023-03-28T09:39:24.925Z,15.44
2023-03-28T09:41:58.282Z,15.70
2023-03-28T09:44:33.182Z,15.01
2023-03-28T09:47:12.119Z,14.21
2023-03-28T09:49:41.608Z,13.14
2023-03-28T09:52:16.486Z,12.07
2023-03-28T09:54:44.521Z,11.29
2023-03-28T09:57:12.328Z,11.06
2023-03-28T09:59:40.603Z,11.92
2023-03-28T10:02:27.558Z,12.81
2023-03-28T10:04:56.661Z,13.93
2023-03-28T10:07:33.162Z,14.21
2023-03-28T10:10:10.826Z,13.88
2023-03-28T10:12:41.563Z,14.76
2023-03-28T10:15:32.129Z,14.41
2023-03-28T10:18:02.549Z,14.35
2023-03-28T10:20:36.917Z,14.47
2023-03-28T10:23:06.450Z,14.17
2023-03-28T10:25:38.941Z,14.22
2023-03-28T10:28:08.722Z,14.24
2023-03-28T10:30:37.976Z,14.18
2023-03-28T10:33:21.239Z,14.90
2023-03-28T10:35:57.369Z,14.85
2023-03-28T10:38:28.110Z,15.12
2023-03-28T10:41:02.451Z,15.86
2023-03-28T10:43:36.093Z,15.53
2023-03-28T10:46:08.735Z,14.29
2023-03-28T10:48:39.337Z,14.27
2023-03-28T10:51:16.560Z,14.15
2023-03-28T10:54:22.540Z,14.16
2023-03-28T10:56:55.367Z,15.41
2023-03-28T10:59:47.117Z,15.28
2023-03-28T11:02:40.759Z,16.06
2023-03-28T11:05:28.954Z,16.56
2023-03-28T11:08:03.270Z,16.96
2023-03-28T11:10:39.938Z,16.93
2023-03-28T11:13:24.325Z,16.21
2023-03-28T11:15:59.981Z,16.39
2023-03-28T11:18:53.942Z,15.82
2023-03-28T11:21:30.629Z,15.64
2023-03-28T11:24:08.705Z,15.97
2023-03-28T11:26:45.285Z,16.50
2023-03-28T11:29:42.147Z,16.83
2023-03-28T11:32:18.807Z,16.84
2023-03-28T11:34:58.259Z,16.16
2023-03-28T11:37:29.614Z,16.00
2023-03-28T11:40:05.305Z,16.74
2023-03-28T11:42:41.823Z,17.73
2023-03-28T11:45:28.084Z,17.14
2023-03-28T11:48:12.579Z,17.62
2023-03-28T11:50:50.400Z,16.86
2023-03-28T11:53:26.183Z,17.08
2023-03-28T11:56:02.782Z,18.76
2023-03-28T11:58:34.169Z,19.95
2023-03-28T12:01:07.854Z,20.46
2023-03-28T12:03:43.505Z,20.99
2023-03-28T12:06:17.939Z,21.60
2023-03-28T12:08:53.432Z,23.15
2023-03-28T12:11:29.452Z,23.71
2023-03-28T12:14:11.689Z,24.53
2023-03-28T12:16:46.766Z,24.37
2023-03-28T12:19:21.097Z,24.39
2023-03-28T12:21:52.553Z,24.12
2023-03-28T12:24:27.697Z,23.63
2023-03-28T12:27:07.583Z,23.88
2023-03-28T12:29:41.901Z,23.31
2023-03-28T12:32:26.606Z,23.30
2023-03-28T12:35:01.350Z,23.18
2023-03-28T12:37:33.325Z,23.72
2023-03-28T12:40:19.971Z,25.30
2023-03-28T12:42:51.485Z,26.07
2023-03-28T12:45:22.950Z,26.98
2023-03-28T12:47:55.741Z,27.25
2023-03-28T12:50:29.487Z,27.15
2023-03-28T12:52:59.930Z,27.10
2023-03-28T12:55:45.510Z,27.18
2023-03-28T12:58:30.717Z,27.75
2023-03-28T13:01:21.425Z,28.13
2023-03-28T13:04:02.415Z,28.85
2023-03-28T13:06:40.891Z,29.15
2023-03-28T13:09:53.506Z,30.33
2023-03-28T13:12:41.657Z,29.79
2023-03-28T13:15:37.305Z,30.55
2023-03-28T13:18:29.814Z,31.06
2023-03-28T13:20:57.723Z,30.96
2023-03-28T13:23:32.478Z,29.55
2023-03-28T13:26:02.579Z,29.75
2023-03-28T13:28:34.091Z,30.02
2023-03-28T13:31:09.861Z,30.38
2023-03-28T13:33:44.921Z,30.42
2023-03-28T13:36:21.388Z,30.13
2023-03-28T13:38:51.133Z,29.72
2023-03-28T13:41:55.075Z,29.62
2023-03-28T13:44:26.249Z,30.21
2023-03-28T13:46:57.563Z,30.43
2023-03-28T13:49:37.200Z,30.55
2023-03-28T13:52:09.989Z,30.43
2023-03-28T13:54:39.783Z,30.30
2023-03-28T13:57:13.665Z,30.54
2023-03-28T13:59:52.160Z,30.81
2023-03-28T14:02:23.490Z,31.35
2023-03-28T14:04:53.991Z,31.70
2023-03-28T14:07:27.087Z,32.42
2023-03-28T14:09:56.154Z,32.72
2023-03-28T14:12:25.659Z,32.14
2023-03-28T14:14:55.821Z,33.07
2023-03-28T14:17:30.420Z,32.58
2023-03-28T14:20:00.115Z,31.65
2023-03-28T14:22:29.996Z,31.44
2023-03-28T14:25:01.917Z,31.92
2023-03-28T14:27:36.528Z,31.64
2023-03-28T14:30:17.183Z,32.50
2023-03-28T14:32:58.676Z,32.56
2023-03-28T14:35:29.239Z,32.78
2023-03-28T14:37:58.509Z,32.95
2023-03-28T14:40:33.308Z,33.39
2023-03-28T14:43:04.338Z,33.35
2023-03-28T14:45:38.230Z,33.28
2023-03-28T14:48:13.611Z,33.77
2023-03-28T14:50:43.043Z,33.63
2023-03-28T14:53:19.594Z,33.09
2023-03-28T14:55:49.369Z,33.15
2023-03-28T14:58:18.946Z,33.08
2023-03-28T15:00:51.054Z,32.61
2023-03-28T15:03:23.864Z,32.89
2023-03-28T15:05:54.553Z,32.71
2023-03-28T15:08:28.168Z,33.14
2023-03-28T15:10:56.856Z,33.17
2023-03-28T15:13:32.438Z,33.47
2023-03-28T15:16:00.575Z,33.62
2023-03-28T15:18:33.943Z,33.62
2023-03-28T15:21:04.629Z,32.93
2023-03-28T15:23:35.495Z,33.11
2023-03-28T15:26:08.344Z,33.37
2023-03-28T15:28:37.331Z,32.76
2023-03-28T15:31:05.332Z,33.58
2023-03-28T15:33:36.246Z,33.25
2023-03-28T15:36:08.641Z,32.80
2023-03-28T15:38:41.202Z,33.08
2023-03-28T15:41:11.712Z,33.20
2023-03-28T15:43:42.597Z,33.35
2023-03-28T15:46:12.782Z,32.84
2023-03-28T15:48:43.170Z,32.80
2023-03-28T15:51:16.299Z,32.70
2023-03-28T15:53:46.116Z,33.13
2023-03-28T15:56:22.651Z,33.85
2023-03-28T15:58:50.819Z,33.48
2023-03-28T16:01:22.693Z,34.05
2023-03-28T16:03:52.884Z,34.36
2023-03-28T16:06:32.283Z,34.81
2023-03-28T16:09:14.582Z,34.82
2023-03-28T16:11:42.601Z,35.28
2023-03-28T16:14:14.548Z,35.51
2023-03-28T16:16:42.409Z,35.49
2023-03-28T16:19:18.512Z,35.94
2023-03-28T16:21:46.368Z,36.21
2023-03-28T16:24:14.239Z,35.95
2023-03-28T16:26:42.042Z,36.12
2023-03-28T16:29:11.190Z,36.12
2023-03-28T16:31:39.628Z,36.14
2023-03-28T16:34:09.855Z,36.42
2023-03-28T16:36:39.518Z,36.42
2023-03-28T16:39:09.484Z,36.59
2023-03-28T16:41:37.273Z,36.57
2023-03-28T16:44:05.643Z,36.36
2023-03-28T16:46:33.775Z,36.49
2023-03-28T16:49:01.667Z,36.96
2023-03-28T16:51:29.324Z,37.14
2023-03-28T16:53:58.507Z,37.35
2023-03-28T16:56:27.496Z,37.11
2023-03-28T16:58:55.594Z,36.45
2023-03-28T17:01:23.453Z,36.35
2023-03-28T17:03:52.640Z,36.66
2023-03-28T17:06:20.851Z,36.62
2023-03-28T17:08:49.482Z,36.53
2023-03-28T17:11:18.990Z,36.67
2023-03-28T17:13:47.474Z,36.76
2023-03-28T17:16:15.291Z,36.90
2023-03-28T17:18:43.017Z,36.83
2023-03-28T17:21:13.241Z,37.19
2023-03-28T17:23:42.802Z,37.36
2023-03-28T17:26:12.122Z,37.50
2023-03-28T17:28:43.630Z,37.70
2023-03-28T17:31:13.387Z,37.63
2023-03-28T17:33:41.313Z,37.81
2023-03-28T17:36:21.910Z,37.78
2023-03-28T17:38:50.430Z,37.80
2023-03-28T17:41:18.124Z,38.02
2023-03-28T17:43:47.337Z,38.15
2023-03-28T17:46:15.143Z,38.54
2023-03-28T17:48:43.283Z,38.55
2023-03-28T17:51:12.809Z,38.69
2023-03-28T17:53:42.634Z,38.69
2023-03-28T17:56:12.425Z,38.83
2023-03-28T17:58:40.241Z,38.57
2023-03-28T18:01:11.652Z,38.53
2023-03-28T18:03:40.145Z,38.35
2023-03-28T18:06:09.443Z,38.27
2023-03-28T18:08:37.588Z,38.32
2023-03-28T18:11:07.838Z,38.54
2023-03-28T18:13:36.546Z,38.60
2023-03-28T18:16:05.366Z,39.02
2023-03-28T18:18:36.081Z,38.80
2023-03-28T18:21:04.249Z,39.19
2023-03-28T18:23:32.096Z,38.88
2023-03-28T18:26:00.128Z,39.09
2023-03-28T18:28:28.411Z,39.05
2023-03-28T18:30:57.263Z,39.70
2023-03-28T18:33:25.049Z,39.66
2023-03-28T18:35:54.097Z,40.64
2023-03-28T18:38:21.869Z,39.88
2023-03-28T18:40:53.328Z,39.62
2023-03-28T18:43:22.236Z,39.74
2023-03-28T18:45:54.548Z,39.90
2023-03-28T18:48:25.394Z,39.96
2023-03-28T18:50:54.530Z,39.98
2023-03-28T18:53:22.410Z,40.10
2023-03-28T18:55:51.720Z,40.23
2023-03-28T18:58:19.731Z,40.24
2023-03-28T19:00:47.515Z,40.50
2023-03-28T19:03:17.604Z,40.12
2023-03-28T19:05:45.646Z,40.36
2023-03-28T19:08:14.641Z,40.57
2023-03-28T19:10:46.473Z,40.87
2023-03-28T19:13:14.102Z,40.33
2023-03-28T19:15:42.116Z,40.71
2023-03-28T19:18:09.989Z,40.59
2023-03-28T19:20:38.122Z,41.00
2023-03-28T19:23:05.848Z,41.01
2023-03-28T19:25:34.905Z,40.97
2023-03-28T19:28:04.036Z,41.07
2023-03-28T19:30:31.637Z,41.08
2023-03-28T19:32:59.527Z,41.47
2023-03-28T19:35:27.235Z,41.26
2023-03-28T19:37:54.878Z,41.69
2023-03-28T19:40:22.619Z,42.37
2023-03-28T19:42:51.627Z,41.34
2023-03-28T19:45:19.300Z,41.02
2023-03-28T19:47:46.956Z,41.05
2023-03-28T19:50:14.599Z,40.86
2023-03-28T19:52:42.609Z,41.24
2023-03-28T19:55:11.032Z,41.44
2023-03-28T19:57:38.677Z,41.67
2023-03-28T20:00:09.862Z,41.45
2023-03-28T20:02:37.965Z,41.31
2023-03-28T20:05:06.073Z,41.24
2023-03-28T20:07:33.776Z,41.55
2023-03-28T20:10:01.520Z,41.60
2023-03-28T20:12:29.140Z,41.99
2023-03-28T20:14:57.100Z,42.15
2023-03-28T20:17:26.206Z,42.19
2023-03-28T20:19:53.795Z,42.54
2023-03-28T20:22:24.376Z,43.08
2023-03-28T20:24:52.023Z,43.40
2023-03-28T20:27:19.712Z,43.73
2023-03-28T20:29:47.388Z,44.00
2023-03-28T20:32:15.258Z,44.16
2023-03-28T20:34:44.260Z,44.70
2023-03-28T20:37:14.059Z,45.52
2023-03-28T20:39:41.848Z,46.94
2023-03-28T20:42:09.516Z,48.21
2023-03-28T20:44:38.961Z,48.79
2023-03-28T20:47:08.492Z,48.28
2023-03-28T20:49:38.163Z,48.89
2023-03-28T20:52:07.741Z,49.36
2023-03-28T20:54:35.481Z,49.24
2023-03-28T20:57:03.120Z,49.37
2023-03-28T20:59:30.769Z,49.31
2023-03-28T21:01:58.783Z,50.11
2023-03-28T21:04:27.652Z,48.96
2023-03-28T21:06:57.498Z,49.44
2023-03-28T21:09:26.562Z,50.15
2023-03-28T21:11:54.169Z,50.22
2023-03-28T21:14:21.802Z,50.46
2023-03-28T21:16:49.896Z,50.22
2023-03-28T21:19:19.217Z,49.89
2023-03-28T21:21:47.147Z,50.19
2023-03-28T21:24:28.838Z,50.90
2023-03-28T21:26:57.786Z,51.88
2023-03-28T21:29:25.509Z,52.09
2023-03-28T21:31:53.566Z,51.85
2023-03-28T21:34:30.441Z,52.03
2023-03-28T21:36:58.518Z,52.01
2023-03-28T21:39:27.016Z,52.42
2023-03-28T21:41:54.942Z,52.80
2023-03-28T21:44:24.185Z,52.20
2023-03-28T21:46:52.099Z,53.13
2023-03-28T21:49:20.325Z,53.13
2023-03-28T21:51:48.068Z,53.00
2023-03-28T21:54:16.315Z,52.52
2023-03-28T21:56:43.953Z,53.69
2023-03-28T21:59:11.728Z,53.60
2023-03-28T22:01:40.785Z,53.99
2023-03-28T22:04:08.474Z,54.27
2023-03-28T22:06:36.209Z,54.39
2023-03-28T22:09:05.003Z,54.61
2023-03-28T22:11:35.043Z,54.83
2023-03-28T22:14:02.910Z,55.96
2023-03-28T22:16:34.029Z,55.59
2023-03-28T22:19:03.136Z,54.22
2023-03-28T22:21:31.496Z,53.37
2023-03-28T22:24:10.325Z,54.33
2023-03-28T22:26:38.011Z,54.78
2023-03-28T22:29:06.040Z,55.38
2023-03-28T22:31:34.171Z,55.52
2023-03-28T22:34:03.241Z,55.76
2023-03-28T22:36:31.300Z,56.20
2023-03-28T22:38:59.103Z,56.06
2023-03-28T22:41:31.840Z,56.38
2023-03-28T22:43:59.813Z,56.12
2023-03-28T22:46:27.637Z,56.47
2023-03-28T22:48:58.249Z,56.53
2023-03-28T22:51:30.010Z,56.82
2023-03-28T22:54:01.692Z,56.58
2023-03-28T22:56:29.280Z,56.33
2023-03-28T22:59:01.198Z,56.68
2023-03-28T23:01:29.745Z,56.66
2023-03-28T23:03:57.343Z,57.13
2023-03-28T23:06:25.076Z,56.75
2023-03-28T23:08:54.061Z,56.25
2023-03-28T23:11:22.200Z,57.29
2023-03-28T23:13:49.906Z,57.64
2023-03-28T23:16:17.682Z,57.59
2023-03-28T23:18:45.367Z,57.75
2023-03-28T23:21:13.087Z,58.28
2023-03-28T23:23:41.675Z,58.83
2023-03-28T23:26:10.704Z,58.71
2023-03-28T23:28:38.324Z,58.58
2023-03-28T23:31:07.074Z,59.13
2023-03-28T23:33:34.699Z,59.09
2023-03-28T23:36:02.492Z,58.75
2023-03-28T23:38:30.182Z,59.61
2023-03-28T23:40:58.068Z,59.91
2023-03-28T23:43:27.051Z,59.12
2023-03-28T23:45:56.779Z,58.94
2023-03-28T23:48:24.468Z,58.95
2023-03-28T23:50:52.152Z,59.67
2023-03-28T23:53:19.860Z,59.47
2023-03-28T23:55:47.505Z,59.13
2023-03-28T23:58:15.201Z,59.06
